createdAt,value
2023-04-18T00:00:58.986Z,7.55
2023-04-18T00:03:04.335Z,7.37
2023-04-18T00:05:08.633Z,7.37
2023-04-18T00:07:13.184Z,7.47
2023-04-18T00:09:15.951Z,7.38
2023-04-18T00:11:20.792Z,7.42
2023-04-18T00:13:23.612Z,7.50
2023-04-18T00:15:26.362Z,7.53
2023-04-18T00:17:30.420Z,7.45
2023-04-18T00:19:34.270Z,7.57
2023-04-18T00:21:37.274Z,7.49
2023-04-18T00:23:40.087Z,7.44
2023-04-18T00:25:42.781Z,7.35
2023-04-18T00:27:47.542Z,7.34
2023-04-18T00:29:50.630Z,7.39
2023-04-18T00:31:53.477Z,7.38
2023-04-18T00:33:56.182Z,7.26
2023-04-18T00:35:58.877Z,7.36
2023-04-18T00:38:01.721Z,7.35
2023-04-18T00:40:05.694Z,7.23
2023-04-18T00:42:08.313Z,7.26
2023-04-18T00:44:12.562Z,7.29
2023-04-18T00:46:15.517Z,7.25
2023-04-18T00:48:18.539Z,7.28
2023-04-18T00:50:21.450Z,7.33
2023-04-18T00:52:27.216Z,7.26
2023-04-18T00:54:30.705Z,7.26
2023-04-18T00:56:33.505Z,7.21
2023-04-18T00:58:36.516Z,7.19
2023-04-18T01:00:40.819Z,7.21
2023-04-18T01:02:44.038Z,7.23
2023-04-18T01:04:47.162Z,7.17
2023-04-18T01:06:49.833Z,7.20
2023-04-18T01:08:53.879Z,7.19
2023-04-18T01:10:56.584Z,7.20
2023-04-18T01:13:12.684Z,7.10
2023-04-18T01:15:15.869Z,7.17
2023-04-18T01:17:20.164Z,7.06
2023-04-18T01:19:23.140Z,7.12
2023-04-18T01:21:26.780Z,7.09
2023-04-18T01:23:29.732Z,7.08
2023-04-18T01:25:34.674Z,7.14
2023-04-18T01:27:37.307Z,7.14
2023-04-18T01:29:40.100Z,7.08
2023-04-18T01:31:42.987Z,7.08
2023-04-18T01:33:45.729Z,7.08
2023-04-18T01:35:48.455Z,7.11
2023-04-18T01:37:51.228Z,7.09
2023-04-18T01:39:53.906Z,7.20
2023-04-18T01:41:58.056Z,7.18
2023-04-18T01:44:00.837Z,7.16
2023-04-18T01:46:03.464Z,7.17
2023-04-18T01:48:06.416Z,7.07
2023-04-18T01:50:10.019Z,7.25
2023-04-18T01:52:14.102Z,7.07
2023-04-18T01:54:16.906Z,7.17
2023-04-18T01:56:19.647Z,7.12
2023-04-18T01:58:23.842Z,7.06
2023-04-18T02:00:26.827Z,7.14
2023-04-18T02:02:29.702Z,7.16
2023-04-18T02:04:32.573Z,7.23
2023-04-18T02:06:35.274Z,7.05
2023-04-18T02:08:37.985Z,7.04
2023-04-18T02:10:40.998Z,6.97
2023-04-18T02:12:43.974Z,6.98
2023-04-18T02:14:52.716Z,6.93
2023-04-18T02:16:55.434Z,6.97
2023-04-18T02:18:58.221Z,6.89
2023-04-18T02:21:01.031Z,6.94
2023-04-18T02:23:04.411Z,6.93
2023-04-18T02:25:08.043Z,6.94
2023-04-18T02:27:11.759Z,6.93
2023-04-18T02:29:14.450Z,6.92
2023-04-18T02:31:18.545Z,6.83
2023-04-18T02:33:21.252Z,6.74
2023-04-18T02:35:24.708Z,6.93
2023-04-18T02:37:27.577Z,6.81
2023-04-18T02:39:30.209Z,6.80
2023-04-18T02:41:34.776Z,6.85
2023-04-18T02:43:37.514Z,6.83
2023-04-18T02:45:40.215Z,6.78
2023-04-18T02:47:54.476Z,6.87
2023-04-18T02:49:58.520Z,6.67
2023-04-18T02:52:01.185Z,6.63
2023-04-18T02:54:03.834Z,6.62
2023-04-18T02:56:07.457Z,6.68
2023-04-18T02:58:10.259Z,6.66
2023-04-18T03:00:14.235Z,6.63
2023-04-18T03:02:17.030Z,6.59
2023-04-18T03:04:21.295Z,6.69
2023-04-18T03:06:24.033Z,6.75
2023-04-18T03:08:26.848Z,6.66
2023-04-18T03:10:29.413Z,6.63
2023-04-18T03:12:32.050Z,6.62
2023-04-18T03:14:34.783Z,6.67
2023-04-18T03:16:37.536Z,6.61
2023-04-18T03:18:40.315Z,6.57
2023-04-18T03:20:44.428Z,6.56
2023-04-18T03:22:47.080Z,6.60
2023-04-18T03:24:50.163Z,6.50
2023-04-18T03:26:52.970Z,6.60
2023-04-18T03:28:55.818Z,6.45
2023-04-18T03:30:58.562Z,6.41
2023-04-18T03:33:02.750Z,6.44
2023-04-18T03:35:06.338Z,6.38
2023-04-18T03:37:10.471Z,6.40
2023-04-18T03:39:13.096Z,6.33
2023-04-18T03:41:15.782Z,6.36
2023-04-18T03:43:20.095Z,6.40
2023-04-18T03:45:22.931Z,6.34
2023-04-18T03:47:26.038Z,6.27
2023-04-18T03:49:28.681Z,6.25
2023-04-18T03:51:34.788Z,6.25
2023-04-18T03:53:38.805Z,6.22
2023-04-18T03:55:42.715Z,6.22
2023-04-18T03:57:45.476Z,6.21
2023-04-18T03:59:48.107Z,6.10
2023-04-18T04:01:50.873Z,6.18
2023-04-18T04:03:53.669Z,6.16
2023-04-18T04:05:56.859Z,6.20
2023-04-18T04:07:59.558Z,6.19
2023-04-18T04:10:03.675Z,6.13
2023-04-18T04:12:06.957Z,6.13
2023-04-18T04:14:09.666Z,6.15
2023-04-18T04:16:12.456Z,6.12
2023-04-18T04:18:15.103Z,6.09
2023-04-18T04:20:23.926Z,6.10
2023-04-18T04:22:26.711Z,6.03
2023-04-18T04:24:30.631Z,5.99
2023-04-18T04:26:35.743Z,6.09
2023-04-18T04:28:39.082Z,6.08
2023-04-18T04:30:48.126Z,6.11
2023-04-18T04:32:51.116Z,6.11
2023-04-18T04:34:53.937Z,6.07
2023-04-18T04:36:56.645Z,6.07
2023-04-18T04:38:59.335Z,6.12
2023-04-18T04:41:02.741Z,6.09
2023-04-18T04:43:06.817Z,6.13
2023-04-18T04:45:10.638Z,6.12
2023-04-18T04:47:13.284Z,6.14
2023-04-18T04:49:15.963Z,6.19
2023-04-18T04:51:18.570Z,6.16
2023-04-18T04:53:21.211Z,6.15
2023-04-18T04:55:24.526Z,6.29
2023-04-18T04:57:27.233Z,6.25
2023-04-18T04:59:31.378Z,6.20
2023-04-18T05:01:34.186Z,6.23
2023-04-18T05:03:37.583Z,6.23
2023-04-18T05:05:40.552Z,6.23
2023-04-18T05:07:43.274Z,6.27
2023-04-18T05:09:45.934Z,6.30
2023-04-18T05:11:49.390Z,6.25
2023-04-18T05:13:52.173Z,6.37
2023-04-18T05:15:56.721Z,6.41
2023-04-18T05:17:59.563Z,6.34
2023-04-18T05:20:02.434Z,6.40
2023-04-18T05:22:05.158Z,6.31
2023-04-18T05:24:07.896Z,6.27
2023-04-18T05:26:10.546Z,6.32
2023-04-18T05:28:13.302Z,6.26
2023-04-18T05:30:16.068Z,6.36
2023-04-18T05:32:20.412Z,6.31
2023-04-18T05:34:23.135Z,6.33
2023-04-18T05:36:26.689Z,6.31
2023-04-18T05:38:29.425Z,6.37
2023-04-18T05:40:32.081Z,6.46
2023-04-18T05:42:34.785Z,6.42
2023-04-18T05:44:37.896Z,6.45
2023-04-18T05:46:40.712Z,6.50
2023-04-18T05:48:44.847Z,6.49
2023-04-18T05:50:47.550Z,6.39
2023-04-18T05:52:50.210Z,6.42
2023-04-18T05:54:53.106Z,6.47
2023-04-18T05:56:57.029Z,6.52
2023-04-18T05:58:59.656Z,6.53
2023-04-18T06:01:02.834Z,6.59
2023-04-18T06:03:07.190Z,6.81
2023-04-18T06:05:13.478Z,6.61
2023-04-18T06:07:16.559Z,6.52
2023-04-18T06:09:19.339Z,6.56
2023-04-18T06:11:22.663Z,6.55
2023-04-18T06:13:25.438Z,6.56
2023-04-18T06:15:28.133Z,6.50
2023-04-18T06:17:30.856Z,6.59
2023-04-18T06:19:33.584Z,6.60
2023-04-18T06:21:37.681Z,6.70
2023-04-18T06:23:40.425Z,6.55
2023-04-18T06:25:43.804Z,6.49
2023-04-18T06:27:46.504Z,6.67
2023-04-18T06:29:49.188Z,6.62
2023-04-18T06:31:52.135Z,6.65
2023-04-18T06:33:54.884Z,6.71
2023-04-18T06:35:57.903Z,6.78
2023-04-18T06:38:01.919Z,6.84
2023-04-18T06:40:05.348Z,6.99
2023-04-18T06:42:08.010Z,6.94
2023-04-18T06:44:10.670Z,6.82
2023-04-18T06:46:13.348Z,6.93
2023-04-18T06:48:16.119Z,7.01
2023-04-18T06:50:18.805Z,6.98
2023-04-18T06:52:21.495Z,7.03
2023-04-18T06:54:25.548Z,6.95
2023-04-18T06:56:29.630Z,7.04
2023-04-18T06:58:32.337Z,6.85
2023-04-18T07:00:34.993Z,7.08
2023-04-18T07:02:39.677Z,6.99
2023-04-18T07:04:42.541Z,6.90
2023-04-18T07:06:45.392Z,6.95
2023-04-18T07:08:48.064Z,6.93
2023-04-18T07:10:52.634Z,7.08
2023-04-18T07:12:55.370Z,7.03
2023-04-18T07:14:58.097Z,6.94
2023-04-18T07:17:01.152Z,7.11
2023-04-18T07:19:03.846Z,7.19
2023-04-18T07:21:07.942Z,7.28
2023-04-18T07:23:11.852Z,7.31
2023-04-18T07:25:14.656Z,7.30
2023-04-18T07:27:18.712Z,7.26
2023-04-18T07:29:21.507Z,7.39
2023-04-18T07:31:25.926Z,7.30
2023-04-18T07:33:31.711Z,7.28
2023-04-18T07:35:34.919Z,7.45
2023-04-18T07:37:37.729Z,7.52
2023-04-18T07:39:40.525Z,7.38
2023-04-18T07:41:43.221Z,7.50
2023-04-18T07:43:47.242Z,7.51
2023-04-18T07:45:50.021Z,7.60
2023-04-18T07:47:52.810Z,7.64
2023-04-18T07:49:56.439Z,7.72
2023-04-18T07:51:59.121Z,7.54
2023-04-18T07:54:02.108Z,7.74
2023-04-18T07:56:05.112Z,7.75
2023-04-18T07:58:07.742Z,7.78
2023-04-18T08:00:13.413Z,7.82
2023-04-18T08:02:16.199Z,8.17
2023-04-18T08:04:19.124Z,7.97
2023-04-18T08:06:21.897Z,8.07
2023-04-18T08:08:24.591Z,8.18
2023-04-18T08:10:27.356Z,8.10
2023-04-18T08:12:30.049Z,8.13
2023-04-18T08:14:33.039Z,8.27
2023-04-18T08:16:38.223Z,8.24
2023-04-18T08:18:41.108Z,8.18
2023-04-18T08:20:43.832Z,8.33
2023-04-18T08:23:05.261Z,8.50
2023-04-18T08:25:10.088Z,8.55
2023-04-18T08:27:12.877Z,8.71
2023-04-18T08:29:15.653Z,9.29
2023-04-18T08:31:18.395Z,10.01
2023-04-18T08:33:23.066Z,9.82
2023-04-18T08:35:25.790Z,9.59
2023-04-18T08:37:29.093Z,9.61
2023-04-18T08:39:32.217Z,9.73
2023-04-18T08:41:37.710Z,9.75
2023-04-18T08:43:41.337Z,9.90
2023-04-18T08:45:45.130Z,9.76
2023-04-18T08:47:48.086Z,10.30
2023-04-18T08:49:52.236Z,10.06
2023-04-18T08:51:57.400Z,9.69
2023-04-18T08:54:04.650Z,10.08
2023-04-18T08:56:10.515Z,9.74
2023-04-18T08:58:13.690Z,9.86
2023-04-18T09:00:18.682Z,9.87
2023-04-18T09:02:23.291Z,9.63
2023-04-18T09:04:37.733Z,9.57
2023-04-18T09:06:52.882Z,9.53
2023-04-18T09:08:59.565Z,9.74
2023-04-18T09:11:18.286Z,9.63
2023-04-18T09:13:39.493Z,9.60
2023-04-18T09:15:42.177Z,9.71
2023-04-18T09:17:49.357Z,9.49
2023-04-18T09:19:54.484Z,9.66
2023-04-18T09:22:01.394Z,9.56
2023-04-18T09:24:20.742Z,9.46
2023-04-18T09:26:34.255Z,9.39
2023-04-18T09:28:37.456Z,9.60
2023-04-18T09:30:42.270Z,9.49
2023-04-18T09:32:46.965Z,9.80
2023-04-18T09:34:49.783Z,9.83
2023-04-18T09:37:11.469Z,9.86
2023-04-18T09:39:27.962Z,9.62
2023-04-18T09:41:32.583Z,9.91
2023-04-18T09:43:35.244Z,10.08
2023-04-18T09:45:38.670Z,10.28
2023-04-18T09:47:41.421Z,9.97
2023-04-18T09:49:44.150Z,10.41
2023-04-18T09:51:47.181Z,10.55
2023-04-18T09:53:51.496Z,10.90
2023-04-18T09:55:57.651Z,10.93
2023-04-18T09:58:01.907Z,11.49
2023-04-18T10:00:13.984Z,12.22
2023-04-18T10:02:22.870Z,11.85
2023-04-18T10:04:26.771Z,11.59
2023-04-18T10:06:30.075Z,11.35
2023-04-18T10:08:33.377Z,10.85
2023-04-18T10:10:38.924Z,11.00
2023-04-18T10:12:42.510Z,10.96
2023-04-18T10:14:45.555Z,10.85
2023-04-18T10:16:49.280Z,10.82
2023-04-18T10:18:53.265Z,11.36
2023-04-18T10:21:03.071Z,11.43
2023-04-18T10:23:37.844Z,11.39
2023-04-18T10:25:51.886Z,11.70
2023-04-18T10:27:59.245Z,11.45
2023-04-18T10:30:02.043Z,11.85
2023-04-18T10:32:07.358Z,11.67
2023-04-18T10:34:17.371Z,11.81
2023-04-18T10:36:21.351Z,11.49
2023-04-18T10:38:24.366Z,11.33
2023-04-18T10:40:33.304Z,11.70
2023-04-18T10:43:10.399Z,11.60
2023-04-18T10:45:19.754Z,11.49
2023-04-18T10:47:23.026Z,11.51
2023-04-18T10:49:28.935Z,11.49
2023-04-18T10:51:33.147Z,11.52
2023-04-18T10:53:35.802Z,11.26
2023-04-18T10:55:44.537Z,11.25
2023-04-18T10:57:48.689Z,11.23
2023-04-18T10:59:54.807Z,11.68
2023-04-18T11:02:00.587Z,11.81
2023-04-18T11:04:13.518Z,12.17
2023-04-18T11:06:16.737Z,12.35
2023-04-18T11:08:24.144Z,11.94
2023-04-18T11:10:29.379Z,12.22
2023-04-18T11:12:34.208Z,12.06
2023-04-18T11:14:42.206Z,11.98
2023-04-18T11:16:46.283Z,11.93
2023-04-18T11:18:48.898Z,11.88
2023-04-18T11:20:52.457Z,11.65
2023-04-18T11:22:57.429Z,11.54
2023-04-18T11:25:01.753Z,11.71
2023-04-18T11:27:05.269Z,11.74
2023-04-18T11:29:07.941Z,11.77
2023-04-18T11:31:10.644Z,11.82
2023-04-18T11:33:16.540Z,12.04
2023-04-18T11:35:19.610Z,11.86
2023-04-18T11:37:22.854Z,11.88
2023-04-18T11:39:25.735Z,11.92
2023-04-18T11:41:28.462Z,12.14
2023-04-18T11:43:31.124Z,11.81
2023-04-18T11:45:34.258Z,11.68
2023-04-18T11:47:36.969Z,11.70
2023-04-18T11:49:42.103Z,11.95
2023-04-18T11:51:46.267Z,11.88
2023-04-18T11:53:49.027Z,11.99
2023-04-18T11:55:55.866Z,12.10
2023-04-18T11:57:59.688Z,11.77
2023-04-18T12:00:02.786Z,11.79
2023-04-18T12:02:16.372Z,11.76
2023-04-18T12:04:20.255Z,11.87
2023-04-18T12:06:25.084Z,11.71
2023-04-18T12:08:28.067Z,11.65
2023-04-18T12:10:31.011Z,11.94
2023-04-18T12:12:34.101Z,11.92
2023-04-18T12:14:37.111Z,11.88
2023-04-18T12:16:39.854Z,11.83
2023-04-18T12:18:42.697Z,11.84
2023-04-18T12:20:50.047Z,11.82
2023-04-18T12:22:55.007Z,11.81
2023-04-18T12:25:09.858Z,11.91
2023-04-18T12:27:13.018Z,12.07
2023-04-18T12:29:15.794Z,12.33
2023-04-18T12:31:18.774Z,12.29
2023-04-18T12:33:21.418Z,12.36
2023-04-18T12:35:24.760Z,12.36
2023-04-18T12:37:27.412Z,12.31
2023-04-18T12:39:31.548Z,12.32
2023-04-18T12:41:34.293Z,12.56
2023-04-18T12:43:36.946Z,12.79
2023-04-18T12:45:39.536Z,12.68
2023-04-18T12:47:44.108Z,12.86
2023-04-18T12:49:46.788Z,12.70
2023-04-18T12:51:49.450Z,12.88
2023-04-18T12:53:52.073Z,13.03
2023-04-18T12:55:56.075Z,12.81
2023-04-18T12:57:59.048Z,12.73
2023-04-18T13:00:01.882Z,12.62
2023-04-18T13:02:05.125Z,12.64
2023-04-18T13:04:12.536Z,12.67
2023-04-18T13:06:16.792Z,12.54
2023-04-18T13:08:19.476Z,12.55
2023-04-18T13:10:24.662Z,12.48
2023-04-18T13:12:30.451Z,12.80
2023-04-18T13:14:33.117Z,12.86
2023-04-18T13:16:35.872Z,12.80
2023-04-18T13:18:38.603Z,13.19
2023-04-18T13:20:41.343Z,13.26
2023-04-18T13:22:44.509Z,13.20
2023-04-18T13:24:47.333Z,13.24
2023-04-18T13:26:50.056Z,13.40
2023-04-18T13:28:54.084Z,13.26
2023-04-18T13:30:56.711Z,13.23
2023-04-18T13:32:59.484Z,12.94
2023-04-18T13:35:03.460Z,13.08
2023-04-18T13:37:06.360Z,13.23
2023-04-18T13:39:09.057Z,13.14
2023-04-18T13:41:13.316Z,13.22
2023-04-18T13:43:16.446Z,13.00
2023-04-18T13:45:20.507Z,13.06
2023-04-18T13:47:23.223Z,13.35
2023-04-18T13:49:25.938Z,13.14
2023-04-18T13:51:28.582Z,13.00
2023-04-18T13:53:31.411Z,13.06
2023-04-18T13:55:34.072Z,12.90
2023-04-18T13:57:37.335Z,12.99
2023-04-18T13:59:40.929Z,13.11
2023-04-18T14:01:45.142Z,13.02
2023-04-18T14:03:47.990Z,12.98
2023-04-18T14:05:50.927Z,12.91
2023-04-18T14:07:53.638Z,12.99
2023-04-18T14:09:56.250Z,12.79
2023-04-18T14:11:59.200Z,12.78
2023-04-18T14:14:02.028Z,12.62
2023-04-18T14:16:05.192Z,12.82
2023-04-18T14:18:09.354Z,12.74
2023-04-18T14:20:12.550Z,12.59
2023-04-18T14:22:15.214Z,12.66
2023-04-18T14:24:17.891Z,12.49
2023-04-18T14:26:20.614Z,12.67
2023-04-18T14:28:25.398Z,12.73
2023-04-18T14:30:27.996Z,12.75
2023-04-18T14:32:30.876Z,12.76
2023-04-18T14:34:36.620Z,12.70
2023-04-18T14:36:40.071Z,12.85
2023-04-18T14:38:42.724Z,12.85
2023-04-18T14:40:45.508Z,12.96
2023-04-18T14:42:48.120Z,12.85
2023-04-18T14:44:50.928Z,12.91
2023-04-18T14:46:53.687Z,12.91
2023-04-18T14:48:56.376Z,13.06
2023-04-18T14:51:02.462Z,13.10
2023-04-18T14:53:05.415Z,13.17
2023-04-18T14:55:09.666Z,13.06
2023-04-18T14:57:12.887Z,12.89
2023-04-18T14:59:16.959Z,12.81
2023-04-18T15:01:19.934Z,13.01
2023-04-18T15:03:22.824Z,13.10
2023-04-18T15:05:25.908Z,13.18
2023-04-18T15:07:30.469Z,12.93
2023-04-18T15:09:37.228Z,12.86
2023-04-18T15:11:39.915Z,12.86
2023-04-18T15:13:42.590Z,12.79
2023-04-18T15:15:52.143Z,12.95
2023-04-18T15:17:54.853Z,12.93
2023-04-18T15:19:59.344Z,12.90
2023-04-18T15:22:02.076Z,12.99
2023-04-18T15:24:06.617Z,12.80
2023-04-18T15:26:09.255Z,12.86
2023-04-18T15:28:12.440Z,13.03
2023-04-18T15:30:15.276Z,12.94
2023-04-18T15:32:18.007Z,13.14
2023-04-18T15:34:20.661Z,13.05
2023-04-18T15:36:23.372Z,13.13
2023-04-18T15:38:26.156Z,13.14
2023-04-18T15:40:30.236Z,13.14
2023-04-18T15:42:32.865Z,13.29
2023-04-18T15:44:35.486Z,13.36
2023-04-18T15:46:38.200Z,13.36
2023-04-18T15:48:40.908Z,13.08
2023-04-18T15:50:43.532Z,13.14
2023-04-18T15:52:46.179Z,12.98
2023-04-18T15:54:48.873Z,13.17
2023-04-18T15:56:52.841Z,13.16
2023-04-18T15:58:57.375Z,12.97
2023-04-18T16:01:00.198Z,12.85
2023-04-18T16:03:03.039Z,12.98
2023-04-18T16:05:07.450Z,13.09
2023-04-18T16:07:10.181Z,13.09
2023-04-18T16:09:12.800Z,12.90
2023-04-18T16:11:15.873Z,12.88
2023-04-18T16:13:19.969Z,12.92
2023-04-18T16:15:22.728Z,12.95
2023-04-18T16:17:25.600Z,12.92
2023-04-18T16:19:28.324Z,12.93
2023-04-18T16:21:30.952Z,12.80
2023-04-18T16:23:33.605Z,12.65
2023-04-18T16:25:36.261Z,12.46
2023-04-18T16:27:38.857Z,12.51
2023-04-18T16:29:44.423Z,12.43
2023-04-18T16:31:47.239Z,12.44
2023-04-18T16:33:52.371Z,12.30
2023-04-18T16:35:58.597Z,12.25
2023-04-18T16:38:01.212Z,12.28
2023-04-18T16:40:05.443Z,12.21
2023-04-18T16:42:08.081Z,12.17
2023-04-18T16:44:10.766Z,12.10
2023-04-18T16:46:14.889Z,12.15
2023-04-18T16:48:17.525Z,12.04
2023-04-18T16:50:20.168Z,12.04
2023-04-18T16:52:23.239Z,12.06
2023-04-18T16:54:25.967Z,12.05
2023-04-18T16:56:28.562Z,11.98
2023-04-18T16:58:31.428Z,11.96
2023-04-18T17:00:35.022Z,11.98
2023-04-18T17:02:43.186Z,11.81
2023-04-18T17:04:46.013Z,11.92
2023-04-18T17:06:50.349Z,11.92
2023-04-18T17:08:54.664Z,11.83
2023-04-18T17:10:57.338Z,11.93
2023-04-18T17:13:00.865Z,11.89
2023-04-18T17:15:03.629Z,11.78
2023-04-18T17:17:07.003Z,11.79
2023-04-18T17:19:11.411Z,11.83
2023-04-18T17:21:14.093Z,11.85
2023-04-18T17:23:16.893Z,11.79
2023-04-18T17:25:19.678Z,11.76
2023-04-18T17:27:22.297Z,11.75
2023-04-18T17:29:26.517Z,11.72
2023-04-18T17:31:29.393Z,11.76
2023-04-18T17:33:32.426Z,11.82
2023-04-18T17:35:36.487Z,11.75
2023-04-18T17:37:39.177Z,11.71
2023-04-18T17:39:41.806Z,11.70
2023-04-18T17:41:45.967Z,11.82
2023-04-18T17:43:50.644Z,11.74
2023-04-18T17:45:53.433Z,11.56
2023-04-18T17:47:57.474Z,11.64
2023-04-18T17:50:00.703Z,11.65
2023-04-18T17:52:05.570Z,11.70
2023-04-18T17:54:10.569Z,11.56
2023-04-18T17:56:14.575Z,11.52
2023-04-18T17:58:17.445Z,11.58
2023-04-18T18:00:20.497Z,11.51
2023-04-18T18:02:23.502Z,11.45
2023-04-18T18:04:27.030Z,11.50
2023-04-18T18:06:29.763Z,11.46
2023-04-18T18:08:33.745Z,11.56
2023-04-18T18:10:36.424Z,11.51
2023-04-18T18:12:39.935Z,11.45
2023-04-18T18:14:42.630Z,11.54
2023-04-18T18:16:45.284Z,11.41
2023-04-18T18:18:48.047Z,11.49
2023-04-18T18:20:50.763Z,11.44
2023-04-18T18:22:54.026Z,11.44
2023-04-18T18:24:58.059Z,11.42
2023-04-18T18:27:01.714Z,11.37
2023-04-18T18:29:09.176Z,11.48
2023-04-18T18:31:11.912Z,11.50
2023-04-18T18:33:14.594Z,11.39
2023-04-18T18:35:17.316Z,11.38
2023-04-18T18:37:19.951Z,11.38
2023-04-18T18:39:22.595Z,11.47
2023-04-18T18:41:26.643Z,11.33
2023-04-18T18:43:29.328Z,11.47
2023-04-18T18:45:32.046Z,11.43
2023-04-18T18:47:35.823Z,11.30
2023-04-18T18:49:40.328Z,11.30
2023-04-18T18:51:44.357Z,11.30
2023-04-18T18:53:47.154Z,11.33
2023-04-18T18:55:49.798Z,11.29
2023-04-18T18:57:54.608Z,11.15
2023-04-18T18:59:57.282Z,11.29
2023-04-18T19:01:59.997Z,11.20
2023-04-18T19:04:02.995Z,11.11
2023-04-18T19:06:07.223Z,11.07
2023-04-18T19:08:11.455Z,11.06
2023-04-18T19:10:14.128Z,11.02
2023-04-18T19:12:16.926Z,10.98
2023-04-18T19:14:21.225Z,10.95
2023-04-18T19:16:24.102Z,10.89
2023-04-18T19:18:26.859Z,10.92
2023-04-18T19:20:29.629Z,10.93
2023-04-18T19:22:32.332Z,10.81
2023-04-18T19:24:34.965Z,10.94
2023-04-18T19:26:37.630Z,10.88
2023-04-18T19:28:40.306Z,10.75
2023-04-18T19:30:45.317Z,10.81
2023-04-18T19:32:48.222Z,10.74
2023-04-18T19:34:51.854Z,10.70
2023-04-18T19:36:54.530Z,10.69
2023-04-18T19:38:57.222Z,10.66
2023-04-18T19:40:59.898Z,10.66
2023-04-18T19:43:02.568Z,10.63
2023-04-18T19:45:06.250Z,10.61
2023-04-18T19:47:10.309Z,10.72
2023-04-18T19:49:13.099Z,10.63
2023-04-18T19:51:15.883Z,10.53
2023-04-18T19:53:18.978Z,10.47
2023-04-18T19:55:21.909Z,10.52
2023-04-18T19:57:26.237Z,10.61
2023-04-18T19:59:29.029Z,10.49
2023-04-18T20:01:31.728Z,10.48
2023-04-18T20:03:36.343Z,10.50
2023-04-18T20:05:39.313Z,10.56
2023-04-18T20:07:42.650Z,10.42
2023-04-18T20:09:45.306Z,10.42
2023-04-18T20:11:48.462Z,10.36
2023-04-18T20:13:52.112Z,10.42
2023-04-18T20:15:56.031Z,10.36
2023-04-18T20:17:58.771Z,10.39
2023-04-18T20:20:03.237Z,10.38
2023-04-18T20:22:05.981Z,10.45
2023-04-18T20:24:10.062Z,10.45
2023-04-18T20:26:12.752Z,10.30
2023-04-18T20:28:15.515Z,10.34
2023-04-18T20:30:18.185Z,10.38
2023-04-18T20:32:21.556Z,10.22
2023-04-18T20:34:24.253Z,10.28
2023-04-18T20:36:29.067Z,10.27
2023-04-18T20:38:32.640Z,10.26
2023-04-18T20:40:36.148Z,10.21
2023-04-18T20:42:38.987Z,10.12
2023-04-18T20:44:43.216Z,10.17
2023-04-18T20:46:46.285Z,10.15
2023-04-18T20:48:48.955Z,10.16
2023-04-18T20:50:51.970Z,10.18
2023-04-18T20:52:56.145Z,10.09
2023-04-18T20:54:58.766Z,10.06
2023-04-18T20:57:01.419Z,10.08
2023-04-18T20:59:05.035Z,10.08
2023-04-18T21:01:07.746Z,10.18
2023-04-18T21:03:10.718Z,10.14
2023-04-18T21:05:13.467Z,10.07
2023-04-18T21:07:16.475Z,10.06
2023-04-18T21:09:20.535Z,10.05
2023-04-18T21:11:23.602Z,10.01
2023-04-18T21:13:26.294Z,10.00
2023-04-18T21:15:29.187Z,10.16
2023-04-18T21:17:31.960Z,9.97
2023-04-18T21:19:34.660Z,9.99
2023-04-18T21:21:37.292Z,9.96
2023-04-18T21:23:42.791Z,9.98
2023-04-18T21:25:47.016Z,9.94
2023-04-18T21:27:50.539Z,9.91
2023-04-18T21:29:53.384Z,9.90
2023-04-18T21:31:56.271Z,9.89
2023-04-18T21:34:00.205Z,9.89
2023-04-18T21:36:02.782Z,9.87
2023-04-18T21:38:05.528Z,9.82
2023-04-18T21:40:10.525Z,9.88
2023-04-18T21:42:14.553Z,9.85
2023-04-18T21:44:18.837Z,9.88
2023-04-18T21:46:21.627Z,9.85
2023-04-18T21:48:24.356Z,9.78
2023-04-18T21:50:27.008Z,9.80
2023-04-18T21:52:29.684Z,9.72
2023-04-18T21:54:32.379Z,9.68
2023-04-18T21:56:35.122Z,9.69
2023-04-18T21:58:39.066Z,9.78
2023-04-18T22:00:41.751Z,9.65
2023-04-18T22:02:44.579Z,9.75
2023-04-18T22:04:48.078Z,9.67
2023-04-18T22:06:50.760Z,9.66
2023-04-18T22:08:53.552Z,9.72
2023-04-18T22:10:58.249Z,9.61
2023-04-18T22:13:01.126Z,9.70
2023-04-18T22:15:06.354Z,9.59
2023-04-18T22:17:09.130Z,9.65
2023-04-18T22:19:11.867Z,9.64
2023-04-18T22:21:14.547Z,9.66
2023-04-18T22:23:17.191Z,9.73
2023-04-18T22:25:19.892Z,9.64
2023-04-18T22:27:22.569Z,9.69
2023-04-18T22:29:25.177Z,9.69
2023-04-18T22:31:29.221Z,9.56
2023-04-18T22:33:31.920Z,9.57
2023-04-18T22:35:34.588Z,9.65
2023-04-18T22:37:37.231Z,9.47
2023-04-18T22:39:39.862Z,9.52
2023-04-18T22:41:42.471Z,9.53
2023-04-18T22:43:45.252Z,9.49
2023-04-18T22:45:47.886Z,9.48
2023-04-18T22:47:51.987Z,9.45
2023-04-18T22:49:54.717Z,9.45
2023-04-18T22:51:57.371Z,9.47
2023-04-18T22:54:00.121Z,9.49
2023-04-18T22:56:02.827Z,9.52
2023-04-18T22:58:05.518Z,9.56
2023-04-18T23:00:11.011Z,9.44
2023-04-18T23:02:13.821Z,9.50
2023-04-18T23:04:18.465Z,9.45
2023-04-18T23:06:21.432Z,9.59
2023-04-18T23:08:24.032Z,9.41
2023-04-18T23:10:26.615Z,9.49
2023-04-18T23:12:29.281Z,9.51
2023-04-18T23:14:31.958Z,9.59
2023-04-18T23:16:34.553Z,9.44
2023-04-18T23:18:37.187Z,9.51
2023-04-18T23:20:41.150Z,9.40
2023-04-18T23:22:43.913Z,9.47
2023-04-18T23:24:46.601Z,9.41
2023-04-18T23:26:49.283Z,9.40
2023-04-18T23:28:51.996Z,9.28
2023-04-18T23:30:54.709Z,9.27
2023-04-18T23:32:57.324Z,9.24
2023-04-18T23:35:04.035Z,9.38
2023-04-18T23:37:08.861Z,9.27
2023-04-18T23:39:11.813Z,9.29
2023-04-18T23:41:14.441Z,9.38
2023-04-18T23:43:17.467Z,9.29
2023-04-18T23:45:20.389Z,9.32
2023-04-18T23:47:23.008Z,9.33
2023-04-18T23:49:27.501Z,9.28
2023-04-18T23:51:30.972Z,9.23
2023-04-18T23:53:35.025Z,9.20
2023-04-18T23:55:37.777Z,9.24
2023-04-18T23:57:40.436Z,9.23
2023-04-18T23:59:43.108Z,9.14
